createdAt,value
2017-12-01T00:00:40.246Z,2.04
2017-12-01T00:01:40.218Z,2.04
2017-12-01T00:02:40.193Z,2.04
2017-12-01T00:03:40.160Z,2.03
2017-12-01T00:04:40.135Z,1.99
2017-12-01T00:05:40.108Z,2.07
2017-12-01T00:06:40.081Z,2.00
2017-12-01T00:07:40.066Z,2.06
2017-12-01T00:08:40.033Z,2.06
2017-12-01T00:09:40.002Z,2.12
2017-12-01T00:10:39.979Z,2.00
2017-12-01T00:11:39.950Z,2.04
2017-12-01T00:12:39.923Z,2.10
2017-12-01T00:13:39.898Z,2.04
2017-12-01T00:14:39.868Z,2.04
2017-12-01T00:15:39.844Z,2.14
2017-12-01T00:16:39.823Z,2.12
2017-12-01T00:17:39.790Z,2.06
2017-12-01T00:18:39.765Z,2.10
2017-12-01T00:19:39.740Z,2.01
2017-12-01T00:20:39.711Z,2.07
2017-12-01T00:21:39.686Z,2.10
2017-12-01T00:22:39.663Z,2.06
2017-12-01T00:23:39.631Z,2.00
2017-12-01T00:24:39.605Z,2.01
2017-12-01T00:25:39.585Z,1.93
2017-12-01T00:26:39.567Z,1.92
2017-12-01T00:27:39.527Z,1.87
2017-12-01T00:28:39.501Z,1.87
2017-12-01T00:29:39.473Z,1.92
2017-12-01T00:30:39.447Z,1.95
2017-12-01T00:31:39.453Z,1.80
2017-12-01T00:32:39.429Z,1.91
2017-12-01T00:33:39.376Z,1.92
2017-12-01T00:34:39.349Z,1.91
2017-12-01T00:35:39.320Z,1.91
2017-12-01T00:36:39.295Z,2.01
2017-12-01T00:37:39.264Z,1.99
2017-12-01T00:38:39.245Z,1.89
2017-12-01T00:39:39.228Z,2.03
2017-12-01T00:40:39.186Z,2.06
2017-12-01T00:41:39.162Z,1.97
2017-12-01T00:42:39.138Z,2.03
2017-12-01T00:43:39.101Z,2.12
2017-12-01T00:44:39.089Z,2.04
2017-12-01T00:45:39.065Z,2.12
2017-12-01T00:46:45.619Z,1.99
2017-12-01T00:47:39.001Z,2.03
2017-12-01T00:48:38.977Z,2.03
2017-12-01T00:49:38.946Z,2.21
2017-12-01T00:50:38.920Z,2.14
2017-12-01T00:51:38.894Z,2.10
2017-12-01T00:52:38.871Z,2.10
2017-12-01T00:53:38.840Z,2.15
2017-12-01T00:54:38.819Z,2.22
2017-12-01T00:55:38.788Z,2.04
2017-12-01T00:56:38.762Z,2.19
2017-12-01T00:57:38.736Z,2.22
2017-12-01T00:58:38.709Z,2.10
2017-12-01T00:59:38.680Z,2.25
2017-12-01T01:00:38.657Z,2.19
2017-12-01T01:01:38.628Z,2.21
2017-12-01T01:02:38.716Z,2.10
2017-12-01T01:03:38.578Z,2.21
2017-12-01T01:04:38.551Z,2.07
2017-12-01T01:05:38.523Z,2.18
2017-12-01T01:06:38.495Z,2.17
2017-12-01T01:07:38.468Z,2.14
2017-12-01T01:08:38.442Z,2.19
2017-12-01T01:09:38.418Z,2.17
2017-12-01T01:10:38.391Z,2.17
2017-12-01T01:11:38.364Z,2.06
2017-12-01T01:12:38.337Z,2.17
2017-12-01T01:13:38.313Z,2.04
2017-12-01T01:14:38.287Z,2.03
2017-12-01T01:15:38.260Z,2.10
2017-12-01T01:16:38.233Z,1.99
2017-12-01T01:17:38.206Z,1.93
2017-12-01T01:18:38.178Z,2.01
2017-12-01T01:19:38.158Z,2.10
2017-12-01T01:20:38.127Z,2.04
2017-12-01T01:21:38.102Z,2.03
2017-12-01T01:22:38.073Z,2.00
2017-12-01T01:23:38.047Z,2.06
2017-12-01T01:24:38.021Z,2.04
2017-12-01T01:25:37.993Z,2.01
2017-12-01T01:26:37.983Z,2.01
2017-12-01T01:27:37.939Z,1.95
2017-12-01T01:28:37.914Z,2.01
2017-12-01T01:29:37.895Z,1.99
2017-12-01T01:30:37.865Z,2.04
2017-12-01T01:31:37.835Z,2.03
2017-12-01T01:32:37.814Z,2.04
2017-12-01T01:33:37.782Z,1.97
2017-12-01T01:34:37.759Z,2.04
2017-12-01T01:35:37.735Z,2.04
2017-12-01T01:36:37.702Z,2.06
2017-12-01T01:37:37.675Z,2.04
2017-12-01T01:38:37.653Z,2.04
2017-12-01T01:39:37.623Z,2.00
2017-12-01T01:40:37.596Z,2.07
2017-12-01T01:41:37.617Z,2.01
2017-12-01T01:42:37.596Z,1.97
2017-12-01T01:43:37.517Z,2.17
2017-12-01T01:44:37.492Z,2.14
2017-12-01T01:45:37.465Z,2.11
2017-12-01T01:46:37.447Z,2.04
2017-12-01T01:47:37.414Z,2.21
2017-12-01T01:48:37.388Z,2.18
2017-12-01T01:49:37.365Z,2.21
2017-12-01T01:50:37.332Z,2.19
2017-12-01T01:51:37.305Z,2.18
2017-12-01T01:52:37.286Z,2.21
2017-12-01T01:53:37.254Z,2.19
2017-12-01T01:54:37.232Z,2.21
2017-12-01T01:55:37.207Z,2.12
2017-12-01T01:56:37.177Z,2.15
2017-12-01T01:57:37.153Z,2.25
2017-12-01T01:58:37.131Z,2.18
2017-12-01T01:59:37.097Z,2.22
2017-12-01T02:00:37.072Z,2.33
2017-12-01T02:01:37.047Z,2.24
2017-12-01T02:02:37.016Z,2.18
2017-12-01T02:03:36.993Z,2.21
2017-12-01T02:04:36.968Z,2.18
2017-12-01T02:05:36.940Z,2.19
2017-12-01T02:06:36.910Z,2.19
2017-12-01T02:07:36.885Z,2.24
2017-12-01T02:08:36.860Z,2.17
2017-12-01T02:09:36.833Z,2.25
2017-12-01T02:10:36.812Z,2.28
2017-12-01T02:11:36.783Z,2.22
2017-12-01T02:12:36.754Z,2.17
2017-12-01T02:13:36.732Z,2.18
2017-12-01T02:14:36.702Z,2.12
2017-12-01T02:15:36.673Z,2.17
2017-12-01T02:16:36.652Z,2.29
2017-12-01T02:17:36.675Z,2.29
2017-12-01T02:18:36.596Z,2.22
2017-12-01T02:19:36.571Z,2.24
2017-12-01T02:20:36.542Z,2.29
2017-12-01T02:21:36.524Z,2.30
2017-12-01T02:22:36.492Z,2.15
2017-12-01T02:23:36.465Z,2.28
2017-12-01T02:24:36.440Z,2.19
2017-12-01T02:25:36.413Z,2.19
2017-12-01T02:26:36.392Z,2.28
2017-12-01T02:27:36.361Z,2.28
2017-12-01T02:28:36.342Z,2.35
2017-12-01T02:29:36.306Z,2.21
2017-12-01T02:30:36.281Z,2.28
2017-12-01T02:31:36.269Z,2.28
2017-12-01T02:32:36.231Z,2.28
2017-12-01T02:33:36.209Z,2.24
2017-12-01T02:34:36.174Z,2.19
2017-12-01T02:35:36.154Z,2.28
2017-12-01T02:36:36.126Z,2.29
2017-12-01T02:37:36.099Z,2.28
2017-12-01T02:38:36.070Z,2.19
2017-12-01T02:39:36.048Z,2.17
2017-12-01T02:40:36.020Z,2.21
2017-12-01T02:41:35.989Z,2.17
2017-12-01T02:42:35.984Z,2.22
2017-12-01T02:43:35.972Z,2.19
2017-12-01T02:44:35.912Z,2.17
2017-12-01T02:45:35.891Z,2.18
2017-12-01T02:46:35.860Z,2.19
2017-12-01T02:47:35.842Z,2.25
2017-12-01T02:48:35.812Z,2.17
2017-12-01T02:49:35.789Z,2.22
2017-12-01T02:50:35.761Z,2.07
2017-12-01T02:51:35.739Z,2.24
2017-12-01T02:52:35.742Z,2.24
2017-12-01T02:53:35.729Z,2.15
2017-12-01T02:54:35.655Z,2.07
2017-12-01T02:55:35.625Z,2.06
2017-12-01T02:56:35.598Z,2.12
2017-12-01T02:57:35.571Z,2.10
2017-12-01T02:58:35.554Z,2.06
2017-12-01T02:59:35.523Z,1.89
2017-12-01T03:00:35.494Z,2.03
2017-12-01T03:01:35.465Z,1.97
2017-12-01T03:02:35.443Z,2.01
2017-12-01T03:03:35.411Z,2.01
2017-12-01T03:04:35.398Z,2.00
2017-12-01T03:05:35.361Z,2.06
2017-12-01T03:06:35.336Z,2.11
2017-12-01T03:07:35.311Z,2.03
2017-12-01T03:08:35.280Z,2.10
2017-12-01T03:09:35.257Z,2.12
2017-12-01T03:10:35.228Z,2.06
2017-12-01T03:11:35.202Z,2.11
2017-12-01T03:12:35.176Z,2.00
2017-12-01T03:13:35.148Z,2.10
2017-12-01T03:14:35.126Z,2.17
2017-12-01T03:15:35.099Z,2.12
2017-12-01T03:16:35.071Z,2.06
2017-12-01T03:17:56.043Z,2.14
2017-12-01T03:18:35.018Z,2.10
2017-12-01T03:19:34.996Z,2.12
2017-12-01T03:20:34.963Z,2.10
2017-12-01T03:21:34.940Z,2.18
2017-12-01T03:22:34.912Z,2.18
2017-12-01T03:23:34.891Z,2.19
2017-12-01T03:24:34.860Z,2.24
2017-12-01T03:25:34.837Z,2.25
2017-12-01T03:26:34.806Z,2.14
2017-12-01T03:27:34.835Z,2.17
2017-12-01T03:28:34.758Z,2.28
2017-12-01T03:29:34.731Z,2.29
2017-12-01T03:30:34.700Z,2.22
2017-12-01T03:31:34.691Z,2.22
2017-12-01T03:32:34.650Z,2.25
2017-12-01T03:33:34.623Z,2.29
2017-12-01T03:34:34.602Z,2.24
2017-12-01T03:35:34.589Z,2.32
2017-12-01T03:36:34.544Z,2.28
2017-12-01T03:37:34.523Z,2.28
2017-12-01T03:38:34.492Z,2.24
2017-12-01T03:39:34.466Z,2.21
2017-12-01T03:40:34.439Z,2.12
2017-12-01T03:41:34.415Z,2.24
2017-12-01T03:42:34.398Z,2.21
2017-12-01T03:43:34.361Z,2.17
2017-12-01T03:44:34.333Z,2.25
2017-12-01T03:45:34.306Z,2.22
2017-12-01T03:46:34.283Z,2.18
2017-12-01T03:47:34.254Z,2.21
2017-12-01T03:48:34.234Z,2.24
2017-12-01T03:49:34.203Z,2.24
2017-12-01T03:50:34.181Z,2.22
2017-12-01T03:51:34.153Z,2.25
2017-12-01T03:52:34.125Z,2.28
2017-12-01T03:53:34.100Z,2.28
2017-12-01T03:54:34.077Z,2.21
2017-12-01T03:55:34.044Z,2.24
2017-12-01T03:56:34.022Z,2.25
2017-12-01T03:57:33.994Z,2.24
2017-12-01T03:58:33.968Z,2.19
2017-12-01T03:59:33.949Z,2.18
2017-12-01T04:00:33.915Z,2.22
2017-12-01T04:01:33.892Z,2.15
2017-12-01T04:02:33.879Z,2.14
2017-12-01T04:03:33.835Z,2.18
2017-12-01T04:04:33.811Z,2.17
2017-12-01T04:05:33.781Z,2.17
2017-12-01T04:06:33.764Z,2.24
2017-12-01T04:07:33.728Z,2.18
2017-12-01T04:08:33.705Z,2.17
2017-12-01T04:09:33.678Z,2.18
2017-12-01T04:10:33.654Z,2.17
2017-12-01T04:11:33.625Z,2.06
2017-12-01T04:12:33.599Z,2.07
2017-12-01T04:13:33.574Z,2.12
2017-12-01T04:14:33.547Z,2.07
2017-12-01T04:15:33.524Z,2.18
2017-12-01T04:16:33.495Z,2.07
2017-12-01T04:17:33.468Z,2.07
2017-12-01T04:18:33.441Z,2.17
2017-12-01T04:19:33.414Z,2.21
2017-12-01T04:20:33.388Z,2.12
2017-12-01T04:21:33.364Z,2.07
2017-12-01T04:22:33.336Z,2.06
2017-12-01T04:23:33.307Z,1.92
2017-12-01T04:24:33.283Z,2.00
2017-12-01T04:25:33.257Z,1.93
2017-12-01T04:26:33.237Z,1.85
2017-12-01T04:27:33.202Z,1.92
2017-12-01T04:28:33.179Z,1.89
2017-12-01T04:29:33.157Z,1.81
2017-12-01T04:30:33.125Z,1.81
2017-12-01T04:31:33.099Z,1.82
2017-12-01T04:32:33.077Z,1.80
2017-12-01T04:33:33.052Z,1.87
2017-12-01T04:34:33.019Z,1.80
2017-12-01T04:35:32.994Z,1.78
2017-12-01T04:36:32.968Z,1.81
2017-12-01T04:37:32.999Z,1.78
2017-12-01T04:38:32.915Z,1.77
2017-12-01T04:39:32.893Z,1.73
2017-12-01T04:40:32.859Z,1.78
2017-12-01T04:41:32.836Z,1.67
2017-12-01T04:42:32.808Z,1.75
2017-12-01T04:43:32.782Z,1.73
2017-12-01T04:44:32.758Z,1.69
2017-12-01T04:45:32.729Z,1.69
2017-12-01T04:46:32.701Z,1.73
2017-12-01T04:47:32.675Z,1.84
2017-12-01T04:48:32.649Z,1.73
2017-12-01T04:49:32.628Z,1.75
2017-12-01T04:50:32.596Z,1.74
2017-12-01T04:51:32.566Z,1.78
2017-12-01T04:52:32.547Z,1.84
2017-12-01T04:53:32.516Z,1.81
2017-12-01T04:54:32.495Z,1.80
2017-12-01T04:55:32.466Z,1.89
2017-12-01T04:56:32.435Z,1.81
2017-12-01T04:57:32.414Z,1.78
2017-12-01T04:58:32.385Z,1.85
2017-12-01T04:59:32.356Z,1.93
2017-12-01T05:00:32.337Z,1.82
2017-12-01T05:01:32.308Z,1.84
2017-12-01T05:02:32.277Z,1.84
2017-12-01T05:03:32.252Z,1.84
2017-12-01T05:04:32.229Z,1.81
2017-12-01T05:05:32.205Z,1.85
2017-12-01T05:06:32.171Z,1.84
2017-12-01T05:07:32.144Z,1.82
2017-12-01T05:08:32.117Z,1.89
2017-12-01T05:09:32.092Z,1.91
2017-12-01T05:10:32.067Z,1.91
2017-12-01T05:11:32.037Z,1.91
2017-12-01T05:12:32.063Z,1.93
2017-12-01T05:13:31.984Z,1.95
2017-12-01T05:14:31.956Z,1.99
2017-12-01T05:15:31.932Z,1.91
2017-12-01T05:16:31.911Z,1.91
2017-12-01T05:17:31.880Z,1.92
2017-12-01T05:18:31.855Z,1.91
2017-12-01T05:19:31.824Z,1.89
2017-12-01T05:20:31.795Z,1.91
2017-12-01T05:21:31.773Z,1.87
2017-12-01T05:22:31.745Z,1.89
2017-12-01T05:23:31.718Z,2.01
2017-12-01T05:24:31.693Z,2.00
2017-12-01T05:25:31.664Z,1.91
2017-12-01T05:26:31.641Z,1.92
2017-12-01T05:27:31.614Z,1.87
2017-12-01T05:28:31.591Z,1.81
2017-12-01T05:29:31.564Z,1.91
2017-12-01T05:30:31.535Z,1.92
2017-12-01T05:31:31.516Z,1.82
2017-12-01T05:32:31.490Z,1.84
2017-12-01T05:33:31.454Z,1.87
2017-12-01T05:34:31.429Z,1.85
2017-12-01T05:35:31.406Z,1.91
2017-12-01T05:36:31.373Z,1.91
2017-12-01T05:37:31.346Z,1.93
2017-12-01T05:38:31.323Z,1.87
2017-12-01T05:39:31.296Z,1.97
2017-12-01T05:40:31.269Z,1.92
2017-12-01T05:41:31.239Z,1.87
2017-12-01T05:42:31.217Z,1.89
2017-12-01T05:43:31.190Z,1.92
2017-12-01T05:44:31.163Z,1.89
2017-12-01T05:45:31.137Z,1.89
2017-12-01T05:46:31.152Z,1.95
2017-12-01T05:47:31.096Z,1.87
2017-12-01T05:48:31.060Z,1.97
2017-12-01T05:49:31.032Z,1.95
2017-12-01T05:50:31.005Z,1.95
2017-12-01T05:51:30.978Z,2.01
2017-12-01T05:52:30.953Z,2.04
2017-12-01T05:53:30.924Z,2.00
2017-12-01T05:54:30.909Z,1.95
2017-12-01T05:55:30.870Z,1.93
2017-12-01T05:56:30.851Z,2.07
2017-12-01T05:57:30.826Z,2.04
2017-12-01T05:58:30.793Z,2.01
2017-12-01T05:59:30.766Z,2.00
2017-12-01T06:00:30.745Z,2.03
2017-12-01T06:01:30.710Z,1.99
2017-12-01T06:02:30.686Z,1.97
2017-12-01T06:03:30.662Z,2.01
2017-12-01T06:04:30.635Z,2.03
2017-12-01T06:05:30.606Z,2.04
2017-12-01T06:06:30.585Z,2.04
2017-12-01T06:07:30.558Z,2.06
2017-12-01T06:08:30.528Z,1.99
2017-12-01T06:09:30.503Z,2.04
2017-12-01T06:10:30.474Z,2.03
2017-12-01T06:11:30.452Z,2.04
2017-12-01T06:12:30.423Z,1.97
2017-12-01T06:13:30.396Z,1.95
2017-12-01T06:14:30.378Z,2.03
2017-12-01T06:15:30.339Z,2.01
2017-12-01T06:16:30.314Z,1.93
2017-12-01T06:17:30.300Z,1.95
2017-12-01T06:18:30.263Z,1.87
2017-12-01T06:19:30.239Z,1.95
2017-12-01T06:20:30.218Z,1.93
2017-12-01T06:21:30.232Z,1.97
2017-12-01T06:22:30.168Z,1.87
2017-12-01T06:23:30.139Z,1.93
2017-12-01T06:24:30.106Z,1.93
2017-12-01T06:25:30.083Z,1.92
2017-12-01T06:26:30.058Z,1.91
2017-12-01T06:27:30.126Z,1.91
2017-12-01T06:28:30.004Z,1.89
2017-12-01T06:29:29.976Z,1.92
2017-12-01T06:30:29.949Z,1.89
2017-12-01T06:31:29.921Z,1.92
2017-12-01T06:32:29.897Z,1.84
2017-12-01T06:33:29.872Z,1.89
2017-12-01T06:34:29.849Z,1.87
2017-12-01T06:35:29.816Z,1.87
2017-12-01T06:36:29.787Z,1.89
2017-12-01T06:37:29.764Z,1.85
2017-12-01T06:38:29.737Z,1.84
2017-12-01T06:39:29.709Z,1.75
2017-12-01T06:40:29.680Z,1.66
2017-12-01T06:41:29.655Z,1.63
2017-12-01T06:42:29.628Z,1.63
2017-12-01T06:43:29.606Z,1.60
2017-12-01T06:44:29.576Z,1.59
2017-12-01T06:45:29.551Z,1.60
2017-12-01T06:46:29.523Z,1.56
2017-12-01T06:47:29.497Z,1.60
2017-12-01T06:50:04.105Z,1.48
2017-12-01T06:51:04.094Z,1.55
2017-12-01T06:52:04.043Z,1.62
2017-12-01T06:53:03.992Z,1.63
2017-12-01T06:54:03.977Z,1.59
2017-12-01T06:55:03.956Z,1.55
2017-12-01T06:56:03.925Z,1.62
2017-12-01T06:57:03.880Z,1.66
2017-12-01T06:58:03.871Z,1.66
2017-12-01T06:59:03.828Z,1.62
2017-12-01T07:00:03.799Z,1.71
2017-12-01T07:01:03.777Z,1.77
2017-12-01T07:02:03.749Z,1.80
2017-12-01T07:03:03.719Z,1.73
2017-12-01T07:04:03.721Z,1.74
2017-12-01T07:05:03.670Z,1.73
2017-12-01T07:06:03.641Z,1.59
2017-12-01T07:07:03.616Z,1.74
2017-12-01T07:08:03.589Z,1.77
2017-12-01T07:09:03.559Z,1.74
2017-12-01T07:10:03.538Z,1.80
2017-12-01T07:11:03.512Z,1.67
2017-12-01T07:12:03.485Z,1.69
2017-12-01T07:13:03.454Z,1.74
2017-12-01T07:14:03.443Z,1.82
2017-12-01T07:15:03.417Z,1.75
2017-12-01T07:16:03.374Z,1.82
2017-12-01T07:17:03.354Z,1.82
2017-12-01T07:18:03.345Z,1.82
2017-12-01T07:19:03.303Z,1.89
2017-12-01T07:20:03.271Z,1.92
2017-12-01T07:21:03.274Z,1.95
2017-12-01T07:22:03.218Z,1.87
2017-12-01T07:23:03.198Z,1.92
2017-12-01T07:24:03.193Z,2.00
2017-12-01T07:25:03.145Z,2.00
2017-12-01T07:26:03.115Z,1.95
2017-12-01T07:27:03.106Z,1.89
2017-12-01T07:28:03.166Z,1.92
2017-12-01T07:29:03.029Z,1.92
2017-12-01T07:30:03.009Z,1.93
2017-12-01T07:31:02.980Z,1.82
2017-12-01T07:32:02.957Z,1.84
2017-12-01T07:33:02.926Z,1.82
2017-12-01T07:34:02.902Z,1.78
2017-12-01T07:35:02.870Z,1.77
2017-12-01T07:36:02.847Z,1.82
2017-12-01T07:37:02.821Z,1.81
2017-12-01T07:38:02.796Z,1.84
2017-12-01T07:39:02.768Z,1.81
2017-12-01T07:40:02.743Z,1.81
2017-12-01T07:41:02.715Z,1.84
2017-12-01T07:42:02.691Z,1.85
2017-12-01T07:43:02.660Z,1.81
2017-12-01T07:44:02.635Z,1.82
2017-12-01T07:45:02.608Z,1.87
2017-12-01T07:46:02.583Z,1.78
2017-12-01T07:47:02.561Z,1.87
2017-12-01T07:48:02.527Z,1.87
2017-12-01T07:49:02.506Z,1.99
2017-12-01T07:50:02.474Z,1.92
2017-12-01T07:51:02.451Z,1.97
2017-12-01T07:52:02.423Z,1.95
2017-12-01T07:53:02.425Z,2.00
2017-12-01T07:54:02.371Z,2.01
2017-12-01T07:55:02.345Z,1.97
2017-12-01T07:56:02.316Z,1.99
2017-12-01T07:57:02.297Z,1.89
2017-12-01T07:58:02.264Z,2.01
2017-12-01T07:59:02.241Z,2.04
2017-12-01T08:00:02.213Z,2.00
2017-12-01T08:01:02.188Z,2.01
2017-12-01T08:02:02.158Z,2.01
2017-12-01T08:03:02.131Z,2.00
2017-12-01T08:04:02.108Z,2.01
2017-12-01T08:05:02.086Z,2.00
2017-12-01T08:06:02.055Z,2.04
2017-12-01T08:07:02.031Z,2.10
2017-12-01T08:08:02.000Z,2.07
2017-12-01T08:09:01.975Z,2.07
2017-12-01T08:10:01.949Z,2.03
2017-12-01T08:11:01.925Z,2.04
2017-12-01T08:12:01.900Z,1.97
2017-12-01T08:13:01.868Z,1.95
2017-12-01T08:14:01.842Z,1.91
2017-12-01T08:15:01.821Z,1.93
2017-12-01T08:16:01.792Z,1.82
2017-12-01T08:17:01.763Z,1.91
2017-12-01T08:18:01.740Z,1.81
2017-12-01T08:19:01.709Z,1.82
2017-12-01T08:20:01.682Z,1.77
2017-12-01T08:21:01.659Z,1.73
2017-12-01T08:22:01.631Z,1.71
2017-12-01T08:23:01.605Z,1.80
2017-12-01T08:24:01.580Z,1.69
2017-12-01T08:25:01.551Z,1.73
2017-12-01T08:26:01.524Z,1.67
2017-12-01T08:27:01.498Z,1.73
2017-12-01T08:28:01.504Z,1.66
2017-12-01T08:29:01.453Z,1.60
2017-12-01T08:30:01.420Z,1.74
2017-12-01T08:31:01.401Z,1.71
2017-12-01T08:32:01.376Z,1.69
2017-12-01T08:33:01.341Z,1.71
2017-12-01T08:34:01.318Z,1.92
2017-12-01T08:35:01.291Z,1.78
2017-12-01T08:36:01.262Z,1.81
2017-12-01T08:37:01.238Z,1.84
2017-12-01T08:38:01.212Z,1.82
2017-12-01T08:39:01.183Z,2.01
2017-12-01T08:40:01.160Z,2.03
2017-12-01T08:41:01.133Z,2.03
2017-12-01T08:42:01.105Z,2.11
2017-12-01T08:43:01.079Z,2.18
2017-12-01T08:44:01.064Z,2.24
2017-12-01T08:45:01.027Z,2.19
2017-12-01T08:46:00.997Z,2.29
2017-12-01T08:47:00.970Z,2.54
2017-12-01T08:48:00.944Z,2.53
2017-12-01T08:49:00.916Z,2.61
2017-12-01T08:51:32.997Z,2.63
2017-12-01T08:52:32.955Z,2.72
2017-12-01T08:53:32.919Z,2.69
2017-12-01T08:54:32.893Z,2.73
2017-12-01T08:55:32.875Z,2.86
2017-12-01T08:56:32.849Z,2.86
2017-12-01T08:57:32.824Z,2.69
2017-12-01T08:58:32.792Z,2.82
2017-12-01T08:59:32.764Z,2.79
2017-12-01T09:00:32.745Z,2.79
2017-12-01T09:01:32.717Z,2.81
2017-12-01T09:02:32.687Z,2.81
2017-12-01T09:03:32.659Z,2.69
2017-12-01T09:04:32.637Z,2.76
2017-12-01T09:05:32.612Z,2.72
2017-12-01T09:06:32.586Z,2.72
2017-12-01T09:07:32.596Z,2.75
2017-12-01T09:08:32.540Z,2.76
2017-12-01T09:09:32.509Z,2.72
2017-12-01T09:10:32.478Z,2.65
2017-12-01T09:11:32.453Z,2.66
2017-12-01T09:12:32.429Z,2.57
2017-12-01T09:13:32.408Z,2.47
2017-12-01T09:14:32.372Z,2.42
2017-12-01T09:15:32.349Z,2.40
2017-12-01T09:16:32.322Z,2.37
2017-12-01T09:17:32.293Z,2.30
2017-12-01T09:18:32.269Z,2.33
2017-12-01T09:19:32.245Z,2.28
2017-12-01T09:20:32.217Z,2.24
2017-12-01T09:21:32.195Z,2.15
2017-12-01T09:22:32.164Z,2.24
2017-12-01T09:23:32.139Z,2.18
2017-12-01T09:24:32.120Z,2.14
2017-12-01T09:25:32.089Z,2.00
2017-12-01T09:26:32.060Z,2.04
2017-12-01T09:27:32.039Z,2.01
2017-12-01T09:28:32.006Z,1.99
2017-12-01T09:29:31.997Z,2.00
2017-12-01T09:30:31.964Z,1.85
2017-12-01T09:31:31.932Z,1.92
2017-12-01T09:32:31.904Z,1.93
2017-12-01T09:33:31.880Z,1.80
2017-12-01T09:34:31.849Z,1.89
2017-12-01T09:35:31.825Z,1.92
2017-12-01T09:36:31.796Z,1.81
2017-12-01T09:37:31.769Z,1.82
2017-12-01T09:38:31.747Z,1.84
2017-12-01T09:39:31.717Z,1.82
2017-12-01T09:40:31.694Z,1.84
2017-12-01T09:41:31.703Z,1.95
2017-12-01T09:42:31.687Z,1.91
2017-12-01T09:43:31.622Z,1.89
2017-12-01T09:44:31.592Z,1.99
2017-12-01T09:45:31.559Z,1.91
2017-12-01T09:46:31.550Z,2.01
2017-12-01T09:47:31.509Z,2.03
2017-12-01T09:48:31.482Z,1.97
2017-12-01T09:49:31.457Z,2.04
2017-12-01T09:50:31.430Z,1.97
2017-12-01T09:51:31.401Z,1.99
2017-12-01T09:52:31.376Z,2.06
2017-12-01T09:53:31.356Z,2.01
2017-12-01T09:54:31.323Z,2.00
2017-12-01T09:55:31.295Z,2.00
2017-12-01T09:56:31.275Z,2.01
2017-12-01T09:57:31.241Z,2.01
2017-12-01T09:58:31.215Z,2.06
2017-12-01T09:59:31.191Z,2.01
2017-12-01T10:00:31.164Z,2.07
2017-12-01T10:01:31.135Z,2.07
2017-12-01T10:02:31.115Z,2.14
2017-12-01T10:03:31.085Z,2.12
2017-12-01T10:04:31.058Z,2.14
2017-12-01T10:05:31.031Z,2.11
2017-12-01T10:06:31.008Z,2.15
2017-12-01T10:07:30.979Z,2.22
2017-12-01T10:08:30.957Z,2.11
2017-12-01T10:09:30.927Z,2.14
2017-12-01T10:10:30.904Z,2.19
2017-12-01T10:11:30.874Z,2.21
2017-12-01T10:12:30.848Z,2.28
2017-12-01T10:13:30.819Z,2.28
2017-12-01T10:14:30.800Z,2.24
2017-12-01T10:15:30.771Z,2.19
2017-12-01T10:16:30.742Z,2.24
2017-12-01T10:17:30.761Z,2.33
2017-12-01T10:18:30.688Z,2.36
2017-12-01T10:19:30.670Z,2.24
2017-12-01T10:20:30.635Z,2.25
2017-12-01T10:21:31.535Z,2.32
2017-12-01T10:22:30.582Z,2.35
2017-12-01T10:23:30.560Z,2.32
2017-12-01T10:24:30.532Z,2.39
2017-12-01T10:25:30.510Z,2.40
2017-12-01T10:26:30.478Z,2.36
2017-12-01T10:27:30.450Z,2.50
2017-12-01T10:28:30.432Z,2.48
2017-12-01T10:29:30.403Z,2.45
2017-12-01T10:30:30.374Z,2.53
2017-12-01T10:31:30.355Z,2.55
2017-12-01T10:32:30.318Z,2.51
2017-12-01T10:33:30.295Z,2.57
2017-12-01T10:34:30.276Z,2.66
2017-12-01T10:35:30.245Z,2.66
2017-12-01T10:36:30.216Z,2.69
2017-12-01T10:37:30.190Z,2.79
2017-12-01T10:38:30.160Z,2.76
2017-12-01T10:39:30.139Z,2.78
2017-12-01T10:40:30.114Z,2.82
2017-12-01T10:41:30.087Z,2.81
2017-12-01T10:42:30.066Z,2.90
2017-12-01T10:43:30.035Z,2.89
2017-12-01T10:44:30.014Z,2.94
2017-12-01T10:45:29.985Z,2.97
2017-12-01T10:46:29.954Z,2.93
2017-12-01T10:47:29.933Z,3.02
2017-12-01T10:48:29.908Z,2.94
2017-12-01T10:49:29.878Z,3.00
2017-12-01T10:50:29.858Z,2.96
2017-12-01T10:51:29.866Z,3.04
2017-12-01T10:52:29.842Z,3.00
2017-12-01T10:53:29.771Z,3.07
2017-12-01T10:54:29.746Z,3.11
2017-12-01T10:55:29.721Z,3.12
2017-12-01T10:56:29.700Z,3.05
2017-12-01T10:57:29.673Z,3.04
2017-12-01T10:58:29.646Z,3.17
2017-12-01T10:59:29.617Z,3.05
2017-12-01T11:00:29.596Z,3.08
2017-12-01T11:01:29.572Z,3.22
2017-12-01T11:02:29.544Z,3.18
2017-12-01T11:03:29.513Z,3.22
2017-12-01T11:04:29.494Z,3.15
2017-12-01T11:05:29.465Z,3.15
2017-12-01T11:06:29.438Z,3.11
2017-12-01T11:07:29.411Z,3.18
2017-12-01T11:08:29.391Z,3.17
2017-12-01T11:09:29.357Z,3.20
2017-12-01T11:10:29.336Z,3.22
2017-12-01T11:11:29.308Z,3.11
2017-12-01T11:12:29.284Z,3.20
2017-12-01T11:13:29.257Z,3.18
2017-12-01T11:14:29.234Z,3.15
2017-12-01T11:15:29.201Z,3.11
2017-12-01T11:16:29.186Z,3.15
2017-12-01T11:17:29.162Z,3.18
2017-12-01T11:18:29.138Z,3.17
2017-12-01T11:19:29.105Z,3.23
2017-12-01T11:20:29.080Z,3.15
2017-12-01T11:21:29.052Z,3.14
2017-12-01T11:22:29.042Z,3.12
2017-12-01T11:23:29.008Z,3.14
2017-12-01T11:24:28.978Z,2.96
2017-12-01T11:25:28.977Z,3.00
2017-12-01T11:26:28.922Z,3.02
2017-12-01T11:27:28.911Z,3.07
2017-12-01T11:28:28.914Z,3.04
2017-12-01T11:29:28.851Z,3.09
2017-12-01T11:30:28.815Z,3.00
2017-12-01T11:31:28.795Z,3.00
2017-12-01T11:32:28.768Z,2.93
2017-12-01T11:33:28.761Z,2.97
2017-12-01T11:34:28.714Z,2.99
2017-12-01T11:35:28.689Z,2.99
2017-12-01T11:36:28.666Z,3.02
2017-12-01T11:37:28.635Z,3.02
2017-12-01T11:38:28.611Z,3.07
2017-12-01T11:39:28.587Z,3.07
2017-12-01T11:40:28.558Z,3.05
2017-12-01T11:41:28.537Z,3.05
2017-12-01T11:42:28.514Z,3.04
2017-12-01T11:43:28.483Z,3.07
2017-12-01T11:44:28.455Z,3.08
2017-12-01T11:45:28.431Z,3.08
2017-12-01T11:46:28.403Z,3.05
2017-12-01T11:47:28.377Z,3.05
2017-12-01T11:48:28.354Z,3.04
2017-12-01T11:49:28.325Z,3.05
2017-12-01T11:50:28.309Z,3.00
2017-12-01T11:51:28.274Z,3.04
2017-12-01T11:52:28.261Z,3.08
2017-12-01T11:53:28.225Z,3.07
2017-12-01T11:54:28.201Z,3.18
2017-12-01T11:55:28.173Z,3.11
2017-12-01T11:56:28.167Z,3.07
2017-12-01T11:57:28.117Z,3.14
2017-12-01T11:58:28.102Z,3.07
2017-12-01T11:59:28.072Z,3.18
2017-12-01T12:00:28.042Z,3.18
2017-12-01T12:01:28.019Z,3.14
2017-12-01T12:02:27.990Z,3.23
2017-12-01T12:03:28.003Z,3.23
2017-12-01T12:04:27.937Z,3.22
2017-12-01T12:05:27.910Z,3.18
2017-12-01T12:06:27.900Z,3.26
2017-12-01T12:07:27.861Z,3.20
2017-12-01T12:08:27.835Z,3.26
2017-12-01T12:09:27.813Z,3.29
2017-12-01T12:10:27.783Z,3.26
2017-12-01T12:11:27.756Z,3.26
2017-12-01T12:12:27.739Z,3.33
2017-12-01T12:13:27.713Z,3.25
2017-12-01T12:14:27.677Z,3.25
2017-12-01T12:15:27.657Z,3.25
2017-12-01T12:16:27.631Z,3.27
2017-12-01T12:17:27.600Z,3.22
2017-12-01T12:18:27.575Z,3.27
2017-12-01T12:19:27.552Z,3.32
2017-12-01T12:20:27.523Z,3.27
2017-12-01T12:21:27.497Z,3.26
2017-12-01T12:22:27.474Z,3.29
2017-12-01T12:23:27.458Z,3.26
2017-12-01T12:24:27.428Z,3.33
2017-12-01T12:25:27.390Z,3.35
2017-12-01T12:26:27.379Z,3.29
2017-12-01T12:27:27.344Z,3.25
2017-12-01T12:28:27.315Z,3.29
2017-12-01T12:29:27.292Z,3.29
2017-12-01T12:30:27.273Z,3.29
2017-12-01T12:31:27.243Z,3.45
2017-12-01T12:32:27.213Z,3.44
2017-12-01T12:33:27.190Z,3.46
2017-12-01T12:34:27.172Z,3.44
2017-12-01T12:35:27.136Z,3.45
2017-12-01T12:36:27.109Z,3.41
2017-12-01T12:37:27.088Z,3.45
2017-12-01T12:38:27.059Z,3.48
2017-12-01T12:39:27.072Z,3.55
2017-12-01T12:40:27.009Z,3.63
2017-12-01T12:41:26.987Z,3.59
2017-12-01T12:42:26.979Z,3.63
2017-12-01T12:43:26.932Z,3.60
2017-12-01T12:44:26.907Z,3.69
2017-12-01T12:45:26.881Z,3.80
2017-12-01T12:46:26.851Z,3.74
2017-12-01T12:47:26.834Z,3.73
2017-12-01T12:48:26.803Z,3.70
2017-12-01T12:49:26.775Z,3.74
2017-12-01T12:50:26.755Z,3.72
2017-12-01T12:51:26.738Z,3.80
2017-12-01T12:52:26.707Z,3.76
2017-12-01T12:53:26.684Z,3.73
2017-12-01T12:54:26.653Z,3.81
2017-12-01T12:55:26.628Z,3.80
2017-12-01T12:56:26.615Z,3.84
2017-12-01T12:57:26.574Z,3.85
2017-12-01T12:58:26.549Z,3.76
2017-12-01T12:59:26.533Z,3.90
2017-12-01T13:00:26.495Z,3.81
2017-12-01T13:01:26.470Z,3.82
2017-12-01T13:02:26.442Z,3.92
2017-12-01T13:03:26.418Z,3.92
2017-12-01T13:04:26.399Z,3.99
2017-12-01T13:05:26.364Z,3.94
2017-12-01T13:06:26.338Z,4.05
2017-12-01T13:07:26.324Z,4.00
2017-12-01T13:08:26.293Z,4.12
2017-12-01T13:09:26.264Z,4.10
2017-12-01T13:10:26.241Z,4.17
2017-12-01T13:11:26.214Z,4.17
2017-12-01T13:12:26.195Z,4.13
2017-12-01T13:13:26.161Z,4.20
2017-12-01T13:14:26.149Z,4.21
2017-12-01T13:15:26.149Z,4.21
2017-12-01T13:16:26.085Z,4.18
2017-12-01T13:17:26.058Z,4.28
2017-12-01T13:18:26.035Z,4.36
2017-12-01T13:19:26.024Z,4.36
2017-12-01T13:20:25.987Z,4.38
2017-12-01T13:21:25.964Z,4.46